createdAt,value
2022-12-24T00:01:06.929Z,53.67
2022-12-24T00:03:53.033Z,53.84
2022-12-24T00:06:39.022Z,53.94
2022-12-24T00:09:24.980Z,53.72
2022-12-24T00:12:11.306Z,53.72
2022-12-24T00:14:57.141Z,53.46
2022-12-24T00:17:42.987Z,54.19
2022-12-24T00:20:28.983Z,54.20
2022-12-24T00:23:15.911Z,54.06
2022-12-24T00:26:01.727Z,53.61
2022-12-24T00:28:47.611Z,53.83
2022-12-24T00:31:33.393Z,54.07
2022-12-24T00:34:19.223Z,53.91
2022-12-24T00:37:05.502Z,53.83
2022-12-24T00:39:51.357Z,53.85
2022-12-24T00:42:37.332Z,53.88
2022-12-24T00:45:23.150Z,53.92
2022-12-24T00:48:08.955Z,53.89
2022-12-24T00:50:54.994Z,53.91
2022-12-24T00:53:40.759Z,54.16
2022-12-24T00:56:27.023Z,53.97
2022-12-24T00:59:13.407Z,54.02
2022-12-24T01:01:59.105Z,53.78
2022-12-24T01:05:03.511Z,54.34
2022-12-24T01:07:49.689Z,54.21
2022-12-24T01:10:35.368Z,54.56
2022-12-24T01:13:21.435Z,54.26
2022-12-24T01:16:16.275Z,54.67
2022-12-24T01:19:02.127Z,54.38
2022-12-24T01:21:47.852Z,54.33
2022-12-24T01:24:33.794Z,54.18
2022-12-24T01:27:21.081Z,54.57
2022-12-24T01:30:08.783Z,54.20
2022-12-24T01:32:54.729Z,54.42
2022-12-24T01:35:44.034Z,54.35
2022-12-24T01:38:30.139Z,54.11
2022-12-24T01:41:38.661Z,54.29
2022-12-24T01:44:36.713Z,54.50
2022-12-24T01:47:26.888Z,54.31
2022-12-24T01:50:15.886Z,54.63
2022-12-24T01:53:02.125Z,54.41
2022-12-24T01:55:48.261Z,54.43
2022-12-24T01:58:35.884Z,54.90
2022-12-24T02:01:25.925Z,54.26
2022-12-24T02:04:26.034Z,54.80
2022-12-24T02:07:12.480Z,54.73
2022-12-24T02:10:01.433Z,54.26
2022-12-24T02:12:47.565Z,54.78
2022-12-24T02:15:40.611Z,54.75
2022-12-24T02:18:33.176Z,54.54
2022-12-24T02:21:42.540Z,54.56
2022-12-24T02:24:43.690Z,54.87
2022-12-24T02:28:07.753Z,55.03
2022-12-24T02:31:06.155Z,54.84
2022-12-24T02:34:00.706Z,55.01
2022-12-24T02:36:54.786Z,55.21
2022-12-24T02:39:45.053Z,54.85
2022-12-24T02:42:37.220Z,54.54
2022-12-24T02:45:27.730Z,54.78
2022-12-24T02:48:15.835Z,55.01
2022-12-24T02:51:07.219Z,54.87
2022-12-24T02:53:53.288Z,54.92
2022-12-24T02:56:54.320Z,55.01
2022-12-24T03:00:06.471Z,55.14
2022-12-24T03:03:23.855Z,55.00
2022-12-24T03:06:12.910Z,55.16
2022-12-24T03:09:07.740Z,54.92
2022-12-24T03:12:08.579Z,55.24
2022-12-24T03:14:54.312Z,55.18
2022-12-24T03:17:41.059Z,55.39
2022-12-24T03:20:34.106Z,55.33
2022-12-24T03:23:20.012Z,55.22
2022-12-24T03:26:08.606Z,55.30
2022-12-24T03:28:54.821Z,55.24
2022-12-24T03:31:52.507Z,55.50
2022-12-24T03:34:38.321Z,55.71
2022-12-24T03:37:25.445Z,55.00
2022-12-24T03:40:11.632Z,55.28
2022-12-24T03:42:57.786Z,55.25
2022-12-24T03:45:44.142Z,55.44
2022-12-24T03:48:32.809Z,55.12
2022-12-24T03:51:20.894Z,55.39
2022-12-24T03:54:06.977Z,55.42
2022-12-24T03:56:52.710Z,55.09
2022-12-24T03:59:38.605Z,55.28
2022-12-24T04:02:24.892Z,55.36
2022-12-24T04:05:15.945Z,55.42
2022-12-24T04:08:01.875Z,55.83
2022-12-24T04:10:47.622Z,55.40
2022-12-24T04:13:33.626Z,55.85
2022-12-24T04:16:19.446Z,55.73
2022-12-24T04:19:05.220Z,55.77
2022-12-24T04:21:51.270Z,55.64
2022-12-24T04:24:36.975Z,55.82
2022-12-24T04:27:26.839Z,55.73
2022-12-24T04:30:16.507Z,55.62
2022-12-24T04:33:02.603Z,55.55
2022-12-24T04:35:48.494Z,55.83
2022-12-24T04:38:35.099Z,55.35
2022-12-24T04:41:24.794Z,55.85
2022-12-24T04:44:11.165Z,55.90
2022-12-24T04:46:56.964Z,55.83
2022-12-24T04:49:42.929Z,55.70
2022-12-24T04:52:28.861Z,55.89
2022-12-24T04:55:14.813Z,55.71
2022-12-24T04:58:00.599Z,55.87
2022-12-24T05:00:46.713Z,55.52
2022-12-24T05:03:33.332Z,55.85
2022-12-24T05:06:22.270Z,55.80
2022-12-24T05:09:08.314Z,56.02
2022-12-24T05:11:53.953Z,55.74
2022-12-24T05:14:40.431Z,56.00
2022-12-24T05:17:26.177Z,55.81
2022-12-24T05:20:12.373Z,55.75
2022-12-24T05:23:16.820Z,56.12
2022-12-24T05:26:22.022Z,55.95
2022-12-24T05:29:09.120Z,56.09
2022-12-24T05:31:54.960Z,55.96
2022-12-24T05:34:40.655Z,55.87
2022-12-24T05:37:26.617Z,56.12
2022-12-24T05:40:12.583Z,55.90
2022-12-24T05:42:58.610Z,56.21
2022-12-24T05:45:44.547Z,56.10
2022-12-24T05:48:30.362Z,56.15
2022-12-24T05:51:19.698Z,56.12
2022-12-24T05:54:05.837Z,56.03
2022-12-24T05:56:52.010Z,55.99
2022-12-24T05:59:37.906Z,56.33
2022-12-24T06:02:23.838Z,56.05
2022-12-24T06:05:10.130Z,56.22
2022-12-24T06:07:56.082Z,56.15
2022-12-24T06:10:42.147Z,56.30
2022-12-24T06:13:28.751Z,56.11
2022-12-24T06:16:17.119Z,56.21
2022-12-24T06:19:06.773Z,56.28
2022-12-24T06:21:52.938Z,56.17
2022-12-24T06:24:38.614Z,56.43
2022-12-24T06:27:24.423Z,56.29
2022-12-24T06:30:10.788Z,56.36
2022-12-24T06:32:56.658Z,56.54
2022-12-24T06:35:42.669Z,56.70
2022-12-24T06:38:31.080Z,56.37
2022-12-24T06:41:17.900Z,56.42
2022-12-24T06:44:04.385Z,56.32
2022-12-24T06:46:50.603Z,56.28
2022-12-24T06:49:36.365Z,56.11
2022-12-24T06:52:22.209Z,56.32
2022-12-24T06:55:08.441Z,56.26
2022-12-24T06:57:54.473Z,56.18
2022-12-24T07:00:40.221Z,56.21
2022-12-24T07:03:26.004Z,56.41
2022-12-24T07:06:19.765Z,56.28
2022-12-24T07:09:05.884Z,56.33
2022-12-24T07:11:51.656Z,56.33
2022-12-24T07:14:37.486Z,56.66
2022-12-24T07:17:24.208Z,56.41
2022-12-24T07:20:13.754Z,56.59
2022-12-24T07:22:59.730Z,56.22
2022-12-24T07:25:45.419Z,56.40
2022-12-24T07:28:31.914Z,56.32
2022-12-24T07:31:17.812Z,56.71
2022-12-24T07:34:03.848Z,56.45
2022-12-24T07:36:49.557Z,56.35
2022-12-24T07:39:35.430Z,56.40
2022-12-24T07:42:21.836Z,56.72
2022-12-24T07:45:09.238Z,56.55
2022-12-24T07:47:55.138Z,56.33
2022-12-24T07:50:41.319Z,56.80
2022-12-24T07:53:28.666Z,56.69
2022-12-24T07:56:15.538Z,56.90
2022-12-24T07:59:01.631Z,56.51
2022-12-24T08:01:47.626Z,56.49
2022-12-24T08:04:36.413Z,56.49
2022-12-24T08:07:22.441Z,56.81
2022-12-24T08:10:08.837Z,56.73
2022-12-24T08:12:54.624Z,56.74
2022-12-24T08:15:40.971Z,56.71
2022-12-24T08:18:27.025Z,56.57
2022-12-24T08:21:13.133Z,56.21
2022-12-24T08:23:59.074Z,56.18
2022-12-24T08:26:44.906Z,56.67
2022-12-24T08:29:30.918Z,56.97
2022-12-24T08:32:17.131Z,56.93
2022-12-24T08:35:03.383Z,56.56
2022-12-24T08:37:49.600Z,56.79
2022-12-24T08:40:35.373Z,56.48
2022-12-24T08:43:21.503Z,56.70
2022-12-24T08:46:07.450Z,57.06
2022-12-24T08:48:53.381Z,56.65
2022-12-24T08:51:39.904Z,57.03
2022-12-24T08:54:25.918Z,56.49
2022-12-24T08:57:12.356Z,56.86
2022-12-24T08:59:58.484Z,56.64
2022-12-24T09:02:44.440Z,56.76
2022-12-24T09:05:30.507Z,56.27
2022-12-24T09:08:16.660Z,56.43
2022-12-24T09:11:04.534Z,56.45
2022-12-24T09:13:50.745Z,56.83
2022-12-24T09:16:36.706Z,56.63
2022-12-24T09:19:22.817Z,56.44
2022-12-24T09:22:08.747Z,56.64
2022-12-24T09:24:54.940Z,56.88
2022-12-24T09:27:41.032Z,56.80
2022-12-24T09:30:27.013Z,56.99
2022-12-24T09:33:12.746Z,56.88
2022-12-24T09:35:59.028Z,56.78
2022-12-24T09:38:46.861Z,56.86
2022-12-24T09:41:42.844Z,57.03
2022-12-24T09:44:44.713Z,56.87
2022-12-24T09:47:40.043Z,56.96
2022-12-24T09:50:42.616Z,57.16
2022-12-24T09:53:48.600Z,57.18
2022-12-24T09:56:42.096Z,57.25
2022-12-24T09:59:45.298Z,57.56
2022-12-24T10:02:33.712Z,57.28
2022-12-24T10:05:42.590Z,56.96
2022-12-24T10:08:47.747Z,57.37
2022-12-24T10:11:51.852Z,57.23
2022-12-24T10:15:05.201Z,57.18
2022-12-24T10:18:21.789Z,57.27
2022-12-24T10:21:15.506Z,56.71
2022-12-24T10:24:15.663Z,57.23
2022-12-24T10:27:09.310Z,57.69
2022-12-24T10:30:01.968Z,57.77
2022-12-24T10:32:48.534Z,58.04
2022-12-24T10:35:37.947Z,57.28
2022-12-24T10:38:24.933Z,57.61
2022-12-24T10:41:11.928Z,57.44
2022-12-24T10:43:59.860Z,57.64
2022-12-24T10:46:46.977Z,56.97
2022-12-24T10:49:56.116Z,57.07
2022-12-24T10:52:45.044Z,57.09
2022-12-24T10:55:31.573Z,57.32
2022-12-24T10:58:20.170Z,57.00
2022-12-24T11:01:07.293Z,57.02
2022-12-24T11:04:01.705Z,56.54
2022-12-24T11:07:07.274Z,56.80
2022-12-24T11:10:07.256Z,56.73
2022-12-24T11:13:13.234Z,56.56
2022-12-24T11:16:08.935Z,56.78
2022-12-24T11:18:58.954Z,56.71
2022-12-24T11:21:44.897Z,56.47
2022-12-24T11:24:34.165Z,56.40
2022-12-24T11:27:29.818Z,56.50
2022-12-24T11:30:16.013Z,57.06
2022-12-24T11:33:01.642Z,56.88
2022-12-24T11:35:50.209Z,56.47
2022-12-24T11:38:36.368Z,56.90
2022-12-24T11:41:23.158Z,56.54
2022-12-24T11:44:09.771Z,56.82
2022-12-24T11:46:59.131Z,56.25
2022-12-24T11:49:45.268Z,56.71
2022-12-24T11:52:31.853Z,56.18
2022-12-24T11:55:54.080Z,56.43
2022-12-24T11:58:47.501Z,56.36
2022-12-24T12:01:38.330Z,56.49
2022-12-24T12:04:29.746Z,56.08
2022-12-24T12:07:28.085Z,56.57
2022-12-24T12:10:30.722Z,56.54
2022-12-24T12:13:24.337Z,56.31
2022-12-24T12:16:55.187Z,56.41
2022-12-24T12:20:06.239Z,57.20
2022-12-24T12:23:18.857Z,57.11
2022-12-24T12:26:12.659Z,56.21
2022-12-24T12:29:02.188Z,56.41
2022-12-24T12:31:49.755Z,56.59
2022-12-24T12:35:17.580Z,56.80
2022-12-24T12:38:11.122Z,56.25
2022-12-24T12:41:03.214Z,56.80
2022-12-24T12:43:58.342Z,56.32
2022-12-24T12:47:06.527Z,56.03
2022-12-24T12:50:11.416Z,56.02
2022-12-24T12:53:19.228Z,56.78
2022-12-24T12:56:29.927Z,56.08
2022-12-24T13:00:02.719Z,56.76
2022-12-24T13:03:27.579Z,56.86
2022-12-24T13:06:29.415Z,56.54
2022-12-24T13:09:46.973Z,56.52
2022-12-24T13:12:33.168Z,56.62
2022-12-24T13:15:57.166Z,57.01
2022-12-24T13:19:21.781Z,56.77
2022-12-24T13:22:15.989Z,56.75
2022-12-24T13:25:02.244Z,56.63
2022-12-24T13:27:48.411Z,56.50
2022-12-24T13:30:41.188Z,56.76
2022-12-24T13:33:39.377Z,56.60
2022-12-24T13:36:26.083Z,56.66
2022-12-24T13:39:19.821Z,57.00
2022-12-24T13:42:07.120Z,56.56
2022-12-24T13:45:34.328Z,56.46
2022-12-24T13:48:30.547Z,57.16
2022-12-24T13:51:20.645Z,56.13
2022-12-24T13:54:11.880Z,56.80
2022-12-24T13:56:59.268Z,56.68
2022-12-24T13:59:46.863Z,57.04
2022-12-24T14:02:37.197Z,56.85
2022-12-24T14:05:27.860Z,56.99
2022-12-24T14:08:22.720Z,56.63
2022-12-24T14:11:23.843Z,56.99
2022-12-24T14:14:12.208Z,57.43
2022-12-24T14:17:00.381Z,56.78
2022-12-24T14:19:58.066Z,56.63
2022-12-24T14:22:48.020Z,56.74
2022-12-24T14:25:34.706Z,56.85
2022-12-24T14:28:23.689Z,56.73
2022-12-24T14:31:18.279Z,57.13
2022-12-24T14:34:09.396Z,56.94
2022-12-24T14:36:56.848Z,56.81
2022-12-24T14:39:46.782Z,57.13
2022-12-24T14:43:07.988Z,56.92
2022-12-24T14:46:10.121Z,57.11
2022-12-24T14:49:11.087Z,56.87
2022-12-24T14:52:03.728Z,57.21
2022-12-24T14:54:49.641Z,57.16
2022-12-24T14:57:35.571Z,57.04
2022-12-24T15:00:21.454Z,57.32
2022-12-24T15:03:13.963Z,57.13
2022-12-24T15:06:02.958Z,57.19
2022-12-24T15:08:50.175Z,56.93
2022-12-24T15:11:36.170Z,57.48
2022-12-24T15:14:24.618Z,56.91
2022-12-24T15:17:12.619Z,56.99
2022-12-24T15:19:59.271Z,57.49
2022-12-24T15:22:46.953Z,58.21
2022-12-24T15:25:33.447Z,57.86
2022-12-24T15:28:22.954Z,58.42
2022-12-24T15:31:13.850Z,58.33
2022-12-24T15:34:00.327Z,58.51
2022-12-24T15:36:46.710Z,58.31
2022-12-24T15:39:32.856Z,58.45
2022-12-24T15:42:19.548Z,58.48
2022-12-24T15:45:07.628Z,58.44
2022-12-24T15:48:06.498Z,58.82
2022-12-24T15:50:56.027Z,58.38
2022-12-24T15:53:44.571Z,58.44
2022-12-24T15:56:34.892Z,58.76
2022-12-24T15:59:32.570Z,58.93
2022-12-24T16:02:25.631Z,58.60
2022-12-24T16:05:32.652Z,59.05
2022-12-24T16:08:24.241Z,58.79
2022-12-24T16:11:24.150Z,59.30
2022-12-24T16:14:17.269Z,58.59
2022-12-24T16:17:03.267Z,59.18
2022-12-24T16:19:51.265Z,59.08
2022-12-24T16:22:40.530Z,59.01
2022-12-24T16:25:28.840Z,59.12
2022-12-24T16:28:21.952Z,58.96
2022-12-24T16:31:17.988Z,59.38
2022-12-24T16:34:05.259Z,59.19
2022-12-24T16:36:51.119Z,59.17
2022-12-24T16:39:36.929Z,58.99
2022-12-24T16:42:41.415Z,59.04
2022-12-24T16:45:29.376Z,59.08
2022-12-24T16:48:24.223Z,59.35
2022-12-24T16:51:10.079Z,59.49
2022-12-24T16:53:56.037Z,59.47
2022-12-24T16:56:43.058Z,59.32
2022-12-24T16:59:29.036Z,59.51
2022-12-24T17:02:17.260Z,59.52
2022-12-24T17:05:03.511Z,59.60
2022-12-24T17:07:50.320Z,59.96
2022-12-24T17:10:36.442Z,59.22
2022-12-24T17:13:22.700Z,59.49
2022-12-24T17:16:08.747Z,59.19
2022-12-24T17:18:55.080Z,59.50
2022-12-24T17:21:40.932Z,59.60
2022-12-24T17:24:26.995Z,59.59
2022-12-24T17:27:13.256Z,59.97
2022-12-24T17:29:59.031Z,59.91
2022-12-24T17:32:44.872Z,59.91
2022-12-24T17:35:31.572Z,59.69
2022-12-24T17:38:17.944Z,59.78
2022-12-24T17:41:06.208Z,60.06
2022-12-24T17:43:52.272Z,60.10
2022-12-24T17:46:38.287Z,60.07
2022-12-24T17:49:24.247Z,59.60
2022-12-24T17:52:10.351Z,60.21
2022-12-24T17:54:56.169Z,59.95
2022-12-24T17:57:42.408Z,59.82
2022-12-24T18:00:32.734Z,59.92
2022-12-24T18:03:19.516Z,60.01
2022-12-24T18:06:08.031Z,60.17
2022-12-24T18:08:54.821Z,60.28
2022-12-24T18:11:40.786Z,60.14
2022-12-24T18:14:26.914Z,59.94
2022-12-24T18:17:13.168Z,59.89
2022-12-24T18:20:00.105Z,60.57
2022-12-24T18:22:46.933Z,60.19
2022-12-24T18:25:33.179Z,60.02
2022-12-24T18:28:19.534Z,60.38
2022-12-24T18:31:17.722Z,60.60
2022-12-24T18:34:06.399Z,59.95
2022-12-24T18:36:55.314Z,60.11
2022-12-24T18:39:43.391Z,60.32
2022-12-24T18:42:29.732Z,60.41
2022-12-24T18:45:16.051Z,60.46
2022-12-24T18:48:02.057Z,60.53
2022-12-24T18:50:55.407Z,60.24
2022-12-24T18:53:41.624Z,60.13
2022-12-24T18:56:27.764Z,59.90
2022-12-24T18:59:13.859Z,60.10
2022-12-24T19:01:59.932Z,60.28
2022-12-24T19:04:46.191Z,60.21
2022-12-24T19:07:32.112Z,60.22
2022-12-24T19:10:18.075Z,60.80
2022-12-24T19:13:04.209Z,60.18
2022-12-24T19:15:50.537Z,60.13
2022-12-24T19:18:36.734Z,60.82
2022-12-24T19:21:22.774Z,60.68
2022-12-24T19:24:10.697Z,60.36
2022-12-24T19:26:56.808Z,60.40
2022-12-24T19:29:43.011Z,60.76
2022-12-24T19:32:28.922Z,60.81
2022-12-24T19:35:14.743Z,60.63
2022-12-24T19:38:01.218Z,60.83
2022-12-24T19:40:47.270Z,61.05
2022-12-24T19:43:33.272Z,60.56
2022-12-24T19:46:22.757Z,61.05
2022-12-24T19:49:11.145Z,60.63
2022-12-24T19:51:57.275Z,60.45
2022-12-24T19:54:43.242Z,60.44
2022-12-24T19:57:29.093Z,60.44
2022-12-24T20:00:15.166Z,60.56
2022-12-24T20:03:01.454Z,60.63
2022-12-24T20:05:47.973Z,61.09
2022-12-24T20:08:34.720Z,60.57
2022-12-24T20:11:22.397Z,60.70
2022-12-24T20:14:08.741Z,60.68
2022-12-24T20:16:55.508Z,60.86
2022-12-24T20:19:41.551Z,60.45
2022-12-24T20:22:27.695Z,61.07
2022-12-24T20:25:13.505Z,60.49
2022-12-24T20:27:59.423Z,61.16
2022-12-24T20:30:45.484Z,61.14
2022-12-24T20:33:31.251Z,60.69
2022-12-24T20:36:18.942Z,60.97
2022-12-24T20:39:06.222Z,60.99
2022-12-24T20:41:52.099Z,60.89
2022-12-24T20:44:38.065Z,61.38
2022-12-24T20:47:24.168Z,60.98
2022-12-24T20:50:10.517Z,61.14
2022-12-24T20:52:56.793Z,61.23
2022-12-24T20:55:42.963Z,60.93
2022-12-24T20:58:30.383Z,61.31
2022-12-24T21:01:19.714Z,60.94
2022-12-24T21:04:08.214Z,61.30
2022-12-24T21:06:53.987Z,60.95
2022-12-24T21:09:40.467Z,60.90
2022-12-24T21:12:45.635Z,61.16
2022-12-24T21:15:35.151Z,61.18
2022-12-24T21:18:22.297Z,61.15
2022-12-24T21:21:08.442Z,60.91
2022-12-24T21:23:55.544Z,61.31
2022-12-24T21:26:41.461Z,61.27
2022-12-24T21:29:27.560Z,61.40
2022-12-24T21:32:13.520Z,61.15
2022-12-24T21:34:59.435Z,61.36
2022-12-24T21:37:45.218Z,61.33
2022-12-24T21:40:31.101Z,61.30
2022-12-24T21:43:16.892Z,61.35
2022-12-24T21:46:13.112Z,61.38
2022-12-24T21:49:17.354Z,61.67
2022-12-24T21:52:03.822Z,61.18
2022-12-24T21:54:50.521Z,61.49
2022-12-24T21:57:54.607Z,61.46
2022-12-24T22:00:40.726Z,61.74
2022-12-24T22:03:26.603Z,61.29
2022-12-24T22:06:32.407Z,61.42
2022-12-24T22:09:36.955Z,61.46
2022-12-24T22:12:23.502Z,61.39
2022-12-24T22:15:10.363Z,61.38
2022-12-24T22:17:56.207Z,61.73
2022-12-24T22:20:42.987Z,61.67
2022-12-24T22:23:28.808Z,61.82
2022-12-24T22:26:16.503Z,61.53
2022-12-24T22:29:05.322Z,61.60
2022-12-24T22:31:51.400Z,61.58
2022-12-24T22:34:37.211Z,61.54
2022-12-24T22:37:23.155Z,61.30
2022-12-24T22:40:09.622Z,61.64
2022-12-24T22:42:55.846Z,61.56
2022-12-24T22:45:41.653Z,61.50
2022-12-24T22:48:27.415Z,61.32
2022-12-24T22:51:18.836Z,61.44
2022-12-24T22:54:05.187Z,61.62
2022-12-24T22:56:51.442Z,61.91
2022-12-24T22:59:37.472Z,61.59
2022-12-24T23:02:28.217Z,61.65
2022-12-24T23:05:15.189Z,61.57
2022-12-24T23:08:01.416Z,61.79
2022-12-24T23:10:47.531Z,61.85
2022-12-24T23:13:51.949Z,61.76
2022-12-24T23:16:38.056Z,61.73
2022-12-24T23:19:23.723Z,61.51
2022-12-24T23:22:10.812Z,62.03
2022-12-24T23:24:56.638Z,62.15
2022-12-24T23:27:42.626Z,61.75
2022-12-24T23:30:28.490Z,61.67
2022-12-24T23:33:14.437Z,61.39
2022-12-24T23:36:00.711Z,61.75
2022-12-24T23:38:47.320Z,61.55
2022-12-24T23:41:33.263Z,61.47
2022-12-24T23:44:19.220Z,61.97
2022-12-24T23:47:05.293Z,61.39
2022-12-24T23:49:51.366Z,61.71
2022-12-24T23:52:37.244Z,61.76
2022-12-24T23:55:23.157Z,61.76
2022-12-24T23:58:10.746Z,61.65
